webcam facing ski center webcam facing ski center


webcam facing south webcam facing south


Thunder radar blitzortung!


Rain radar rain snow radar


Visit our other sites:

Hotel Skamnos

Arachova Weather Station

Skamnos Weather Station

Skamnos Weather2

Arachova Weather2

WU Skamnos

WU Arachova


Other Weather Sites:

Parnassos Snow Forecast

Parnassos Snow Report

Kelaria 1950m

Kelaria 2240m

Fterolaka 2080m



No particular awareness of the weather is required.    There are no Weather-warnings

Nearby METAR Reports

  
1089 - Arachova Meteo, Greece
Distance from station: S 10km
Updated: 13-12-2017 22:49
Partly Cloudy
Partly Cloudy  
 Wind from WNW
Wind: WNW 9 km/h
Temperature:  9°C
Wind Chill:  7°C
Dew Point:  4°C
Humidity:  71%
Barometer:  1019 hPa
Clouds:  Partly Cloudy
Visibility:  9 km
Cloud details:  Partly Cloudy 579 m
2017/12/13 20:49 1089 132049Z 29205KT 9000 SCT019 09/04 Q1019
1155 - Arachova2, Greece
Distance from station: S 10km
Updated: 02-11-2017 14:04
NOT Current
Few Clouds
Few Clouds  
 Wind from ESE
Wind: ESE 9 km/h
Temperature:  11°C
Dew Point:  6°C
Humidity:  72%
Barometer:  1023 hPa
Clouds:  Few Clouds
Visibility:  9 km
Cloud details:  Few Clouds 549 m
2017/11/02 12:04 1155 021204Z 11205KT 9000 FEW018 11/06 Q1023
1184 - Arachova VillaFiloxenia, Greece
Distance from station: S 10km
Updated: 09-05-2017 15:04
NOT Current
Partly Cloudy
Partly Cloudy  
 Wind from calm
Wind: Calm
Temperature:  17°C
Dew Point:  9°C
Humidity:  59%
Barometer:  1007 hPa
Clouds:  Partly Cloudy
Visibility:  10 km
Cloud details:  Partly Cloudy 1006 m
2017/05/09 12:04 1184 091204Z 00000KT 9999 SCT033 17/09 Q1007
1250 - Parnassos Kelaria 1950m, Greece
Distance from station: E 3km
Updated: 02-11-2017 14:04
NOT Current
Partly Cloudy
Partly Cloudy  
 Wind from E
Wind: E 4 km/h
Temperature:  5°C
Dew Point:  1°C
Humidity:  76%
Barometer:  1022 hPa
Clouds:  Partly Cloudy
Visibility:  9 km
Cloud details:  Partly Cloudy 457 m
2017/11/02 12:04 1250 021204Z 09002KT 9000 SCT015 05/01 Q1022
1126 - Parnassos Fterolaka 2080m, Greece
Distance from station: E 3km
Updated: 21-03-2015 01:04
NOT Current
Few Clouds
Few Clouds  
 Wind from calm
Wind: Calm
Temperature:  -11°C
Dew Point:  -11°C
Humidity:  100%
Barometer:  1019 hPa
Clouds:  Few Clouds
Visibility:  6 km
Cloud details:  Few Clouds 305 m
2015/03/20 23:04 1126 202304Z 00000KT 6000 FEW010 M11/M11 Q1019
1382 - Parnassos Helcules 2240m, Greece
Distance from station: E 3km
Updated: 02-11-2017 14:04
NOT Current
Partly Cloudy
Partly Cloudy  
 Wind from calm
Wind: Calm
Temperature:  2°C
Dew Point:  -1°C
Humidity:  81%
Barometer:  1022 hPa
Clouds:  Partly Cloudy
Visibility:  8 km
Cloud details:  Partly Cloudy 335 m
2017/11/02 12:04 1382 021204Z 00000KT 8000 SCT011 02/M01 Q1022
1219 - Anrikyra, Greece
Distance from station: S 40km
Updated: 02-11-2017 14:04
NOT Current
Clear
Clear  
 Wind from SE
Wind: SE 13 km/h
Temperature:  15°C
Dew Point:  9°C
Humidity:  68%
Barometer:  1019 hPa
Clouds:  Clear
Visibility:  9 km
2017/11/02 12:04 1219 021204Z 13507KT 9000 SKC 15/09 Q1019
1015 - Galaxeidi, Greece
Distance from station: S 40km
Updated: 02-11-2017 14:03
NOT Current
Clear
Clear  
 Wind from SE
Wind: SE 11 km/h
Temperature:  18°C
Dew Point:  9°C
Humidity:  56%
Barometer:  1030 hPa
Clouds:  Clear
Visibility:  10 km
2017/11/02 12:03 1015 021203Z 13506KT 9999 SKC 18/09 Q1030
1088 - Amfikleia, Greece
Distance from station: N 10km
Updated: 02-11-2017 14:04
NOT Current
Clear
Clear  
 Wind from calm
Wind: Calm
Temperature:  16°C
Dew Point:  7°C
Humidity:  55%
Barometer:  1021 hPa
Clouds:  Clear
Visibility:  10 km
2017/11/02 12:04 1088 021204Z 00000KT 9999 SKC 16/07 Q1021
1337 - Polydroso, Greece
Distance from station: N 10km
Updated: 02-11-2017 14:04
NOT Current
Few Clouds
Few Clouds  
 Wind from calm
Wind: Calm
Temperature:  18°C
Dew Point:  8°C
Humidity:  52%
Barometer:  1021 hPa
Clouds:  Few Clouds
Visibility:  10 km
Cloud details:  Few Clouds 1219 m
2017/11/02 12:04 1337 021204Z 00000KT 9999 FEW040 18/08 Q1021

Script developed by  Saratoga-weather.org Adapted for the template by  Weerstation Leuven